sensor_id;sensor_type;location;lat;lon;timestamp;pressure;altitude;pressure_sealevel;temperature;humidity
9746;BME280;4912;50.836;12.958;2023-08-20T00:01:19;98101.47;;;27.84;63.60
9746;BME280;4912;50.836;12.958;2023-08-20T00:03:54;98101.19;;;27.97;63.55
9746;BME280;4912;50.836;12.958;2023-08-20T00:06:26;98100.50;;;27.89;63.69
9746;BME280;4912;50.836;12.958;2023-08-20T00:08:57;98105.44;;;27.89;63.34
9746;BME280;4912;50.836;12.958;2023-08-20T00:11:28;98106.47;;;27.76;63.67
9746;BME280;4912;50.836;12.958;2023-08-20T00:14:01;98106.69;;;27.70;63.81
9746;BME280;4912;50.836;12.958;2023-08-20T00:16:32;98114.31;;;27.68;64.13
9746;BME280;4912;50.836;12.958;2023-08-20T00:19:04;98116.28;;;27.50;64.78
9746;BME280;4912;50.836;12.958;2023-08-20T00:21:35;98116.66;;;27.47;64.90
9746;BME280;4912;50.836;12.958;2023-08-20T00:24:11;98117.44;;;27.40;64.78
9746;BME280;4912;50.836;12.958;2023-08-20T00:26:43;98115.13;;;27.46;64.68
9746;BME280;4912;50.836;12.958;2023-08-20T00:29:17;98121.78;;;27.48;64.37
9746;BME280;4912;50.836;12.958;2023-08-20T00:31:47;98132.97;;;27.46;64.95
9746;BME280;4912;50.836;12.958;2023-08-20T00:34:18;98137.03;;;27.28;65.62
9746;BME280;4912;50.836;12.958;2023-08-20T00:36:49;98140.25;;;27.24;65.91
9746;BME280;4912;50.836;12.958;2023-08-20T00:39:19;98147.44;;;27.33;65.51
9746;BME280;4912;50.836;12.958;2023-08-20T00:41:50;98139.41;;;27.47;65.12
9746;BME280;4912;50.836;12.958;2023-08-20T00:44:23;98145.66;;;27.53;65.07
9746;BME280;4912;50.836;12.958;2023-08-20T00:46:54;98141.25;;;27.59;64.69
9746;BME280;4912;50.836;12.958;2023-08-20T00:49:26;98154.53;;;27.57;64.54
9746;BME280;4912;50.836;12.958;2023-08-20T00:51:57;98152.28;;;27.55;65.09
9746;BME280;4912;50.836;12.958;2023-08-20T00:54:31;98153.78;;;27.49;65.12
9746;BME280;4912;50.836;12.958;2023-08-20T00:57:03;98160.84;;;27.40;66.04
9746;BME280;4912;50.836;12.958;2023-08-20T00:59:37;98149.91;;;27.29;66.74
9746;BME280;4912;50.836;12.958;2023-08-20T01:02:07;98157.09;;;27.30;66.89
9746;BME280;4912;50.836;12.958;2023-08-20T01:04:38;98155.78;;;27.31;66.44
9746;BME280;4912;50.836;12.958;2023-08-20T01:07:14;98158.06;;;27.33;66.54
9746;BME280;4912;50.836;12.958;2023-08-20T01:09:54;98158.75;;;27.41;66.11
9746;BME280;4912;50.836;12.958;2023-08-20T01:12:31;98163.13;;;27.34;66.40
9746;BME280;4912;50.836;12.958;2023-08-20T01:15:08;98162.59;;;27.28;67.07
9746;BME280;4912;50.836;12.958;2023-08-20T01:17:43;98169.22;;;27.30;67.11
9746;BME280;4912;50.836;12.958;2023-08-20T01:20:14;98163.22;;;27.19;68.41
9746;BME280;4912;50.836;12.958;2023-08-20T01:26:21;98182.22;;;26.94;70.38
9746;BME280;4912;50.836;12.958;2023-08-20T01:29:03;98172.19;;;26.93;70.69
9746;BME280;4912;50.836;12.958;2023-08-20T01:31:35;98179.78;;;26.90;71.36
9746;BME280;4912;50.836;12.958;2023-08-20T01:34:06;98178.25;;;26.97;71.26
9746;BME280;4912;50.836;12.958;2023-08-20T01:36:37;98171.25;;;26.98;71.55
9746;BME280;4912;50.836;12.958;2023-08-20T01:39:10;98174.25;;;27.00;71.76
9746;BME280;4912;50.836;12.958;2023-08-20T01:41:42;98168.75;;;27.09;71.17
9746;BME280;4912;50.836;12.958;2023-08-20T01:44:15;98176.09;;;27.20;71.31
9746;BME280;4912;50.836;12.958;2023-08-20T01:46:46;98175.25;;;27.35;70.69
9746;BME280;4912;50.836;12.958;2023-08-20T01:49:17;98176.22;;;27.29;70.87
9746;BME280;4912;50.836;12.958;2023-08-20T01:51:47;98180.56;;;27.38;70.58
9746;BME280;4912;50.836;12.958;2023-08-20T01:54:18;98182.97;;;27.49;70.50
9746;BME280;4912;50.836;12.958;2023-08-20T01:56:48;98180.53;;;27.53;70.94
9746;BME280;4912;50.836;12.958;2023-08-20T01:59:22;98191.69;;;27.59;70.76
9746;BME280;4912;50.836;12.958;2023-08-20T02:01:52;98198.16;;;27.52;71.18
9746;BME280;4912;50.836;12.958;2023-08-20T02:04:23;98201.16;;;27.46;71.90
9746;BME280;4912;50.836;12.958;2023-08-20T02:06:54;98193.25;;;27.45;72.71
9746;BME280;4912;50.836;12.958;2023-08-20T02:09:27;98201.75;;;27.52;71.61
9746;BME280;4912;50.836;12.958;2023-08-20T02:11:57;98205.75;;;27.42;71.80
9746;BME280;4912;50.836;12.958;2023-08-20T02:14:30;98204.28;;;27.25;72.74
9746;BME280;4912;50.836;12.958;2023-08-20T02:17:02;98199.38;;;27.26;72.96
9746;BME280;4912;50.836;12.958;2023-08-20T02:19:33;98199.59;;;27.20;73.36
9746;BME280;4912;50.836;12.958;2023-08-20T02:22:04;98204.72;;;27.07;74.66
9746;BME280;4912;50.836;12.958;2023-08-20T02:24:34;98202.84;;;27.09;74.70
9746;BME280;4912;50.836;12.958;2023-08-20T02:27:05;98216.06;;;27.14;74.99
9746;BME280;4912;50.836;12.958;2023-08-20T02:29:39;98215.88;;;27.12;75.60
9746;BME280;4912;50.836;12.958;2023-08-20T02:32:13;98220.09;;;27.04;76.24
9746;BME280;4912;50.836;12.958;2023-08-20T02:34:43;98222.91;;;27.04;76.77
9746;BME280;4912;50.836;12.958;2023-08-20T02:37:14;98217.59;;;27.08;76.57
9746;BME280;4912;50.836;12.958;2023-08-20T02:39:45;98215.88;;;27.12;76.76
9746;BME280;4912;50.836;12.958;2023-08-20T02:42:15;98219.84;;;27.17;76.81
9746;BME280;4912;50.836;12.958;2023-08-20T02:44:49;98214.53;;;27.21;77.71
9746;BME280;4912;50.836;12.958;2023-08-20T02:47:19;98207.34;;;27.12;78.33
9746;BME280;4912;50.836;12.958;2023-08-20T02:49:50;98218.53;;;27.10;79.32
9746;BME280;4912;50.836;12.958;2023-08-20T02:52:20;98218.38;;;27.08;79.38
9746;BME280;4912;50.836;12.958;2023-08-20T02:54:51;98219.47;;;27.20;78.77
9746;BME280;4912;50.836;12.958;2023-08-20T02:57:22;98220.25;;;27.13;79.55
9746;BME280;4912;50.836;12.958;2023-08-20T02:59:55;98224.97;;;27.11;80.12
9746;BME280;4912;50.836;12.958;2023-08-20T03:02:26;98218.38;;;27.08;80.50
9746;BME280;4912;50.836;12.958;2023-08-20T03:04:57;98217.06;;;27.02;81.37
9746;BME280;4912;50.836;12.958;2023-08-20T03:07:27;98216.50;;;26.96;81.73
9746;BME280;4912;50.836;12.958;2023-08-20T03:09:58;98222.53;;;26.92;82.52
9746;BME280;4912;50.836;12.958;2023-08-20T03:12:29;98232.56;;;26.93;82.17
9746;BME280;4912;50.836;12.958;2023-08-20T03:15:03;98234.09;;;26.94;82.81
9746;BME280;4912;50.836;12.958;2023-08-20T03:17:34;98231.66;;;26.91;83.21
9746;BME280;4912;50.836;12.958;2023-08-20T03:20:07;98232.56;;;26.93;83.09
9746;BME280;4912;50.836;12.958;2023-08-20T03:22:38;98228.63;;;26.96;82.93
9746;BME280;4912;50.836;12.958;2023-08-20T03:25:09;98237.69;;;27.02;82.78
9746;BME280;4912;50.836;12.958;2023-08-20T03:27:39;98239.00;;;27.01;83.16
9746;BME280;4912;50.836;12.958;2023-08-20T03:30:14;98246.97;;;26.95;83.87
9746;BME280;4912;50.836;12.958;2023-08-20T03:32:45;98247.16;;;26.97;83.79
9746;BME280;4912;50.836;12.958;2023-08-20T03:35:16;98250.22;;;26.92;84.79
9746;BME280;4912;50.836;12.958;2023-08-20T03:37:47;98249.81;;;26.80;85.62
9746;BME280;4912;50.836;12.958;2023-08-20T03:40:18;98250.56;;;26.73;86.23
9746;BME280;4912;50.836;12.958;2023-08-20T03:42:49;98253.97;;;26.64;86.94
9746;BME280;4912;50.836;12.958;2023-08-20T03:45:22;98256.59;;;26.69;87.04
9746;BME280;4912;50.836;12.958;2023-08-20T03:47:53;98248.09;;;26.69;86.82
9746;BME280;4912;50.836;12.958;2023-08-20T03:50:23;98260.03;;;26.68;86.93
9746;BME280;4912;50.836;12.958;2023-08-20T03:52:54;98267.97;;;26.69;86.89
9746;BME280;4912;50.836;12.958;2023-08-20T03:55:26;98255.69;;;26.67;86.90
9746;BME280;4912;50.836;12.958;2023-08-20T03:57:56;98264.38;;;26.69;86.87
9746;BME280;4912;50.836;12.958;2023-08-20T04:00:30;98274.03;;;26.66;87.21
9746;BME280;4912;50.836;12.958;2023-08-20T04:03:02;98269.66;;;26.57;87.95
9746;BME280;4912;50.836;12.958;2023-08-20T04:05:36;98285.38;;;26.51;88.80
9746;BME280;4912;50.836;12.958;2023-08-20T04:08:06;98279.69;;;26.35;89.40
9746;BME280;4912;50.836;12.958;2023-08-20T04:10:42;98279.13;;;26.37;89.73
9746;BME280;4912;50.836;12.958;2023-08-20T04:13:14;98281.19;;;26.36;89.55
9746;BME280;4912;50.836;12.958;2023-08-20T04:15:48;98284.78;;;26.29;90.01
9746;BME280;4912;50.836;12.958;2023-08-20T04:18:19;98290.25;;;26.27;90.09
9746;BME280;4912;50.836;12.958;2023-08-20T04:20:51;98295.78;;;26.33;89.95
9746;BME280;4912;50.836;12.958;2023-08-20T04:23:22;98294.22;;;26.24;90.38
9746;BME280;4912;50.836;12.958;2023-08-20T04:25:53;98297.22;;;26.19;90.25
9746;BME280;4912;50.836;12.958;2023-08-20T04:28:24;98290.22;;;26.20;90.06
9746;BME280;4912;50.836;12.958;2023-08-20T04:30:58;98301.22;;;26.23;89.89
9746;BME280;4912;50.836;12.958;2023-08-20T04:33:42;98307.03;;;26.18;90.00
9746;BME280;4912;50.836;12.958;2023-08-20T04:36:15;98306.28;;;26.17;90.28
9746;BME280;4912;50.836;12.958;2023-08-20T04:38:46;98290.38;;;26.22;89.53
9746;BME280;4912;50.836;12.958;2023-08-20T04:41:17;98296.31;;;26.31;89.65
9746;BME280;4912;50.836;12.958;2023-08-20T04:43:47;98293.50;;;26.46;88.78
9746;BME280;4912;50.836;12.958;2023-08-20T04:46:22;98304.13;;;26.54;88.64
9746;BME280;4912;50.836;12.958;2023-08-20T04:48:53;98304.69;;;26.44;88.33
9746;BME280;4912;50.836;12.958;2023-08-20T04:51:23;98309.94;;;26.40;88.99
9746;BME280;4912;50.836;12.958;2023-08-20T04:53:54;98311.09;;;26.37;89.05
9746;BME280;4912;50.836;12.958;2023-08-20T04:56:24;98309.19;;;26.40;89.03
9746;BME280;4912;50.836;12.958;2023-08-20T04:58:56;98306.91;;;26.31;89.62
9746;BME280;4912;50.836;12.958;2023-08-20T05:01:48;98319.56;;;26.30;89.91
9746;BME280;4912;50.836;12.958;2023-08-20T05:04:27;98318.38;;;26.18;91.05
9746;BME280;4912;50.836;12.958;2023-08-20T05:06:58;98329.91;;;26.12;91.83
9746;BME280;4912;50.836;12.958;2023-08-20T05:09:30;98333.31;;;26.18;91.27
9746;BME280;4912;50.836;12.958;2023-08-20T05:12:00;98329.72;;;26.18;91.40
9746;BME280;4912;50.836;12.958;2023-08-20T05:14:33;98346.59;;;26.23;91.19
9746;BME280;4912;50.836;12.958;2023-08-20T05:17:06;98331.41;;;26.13;92.02
9746;BME280;4912;50.836;12.958;2023-08-20T05:19:37;98330.47;;;26.10;92.28
9746;BME280;4912;50.836;12.958;2023-08-20T05:22:08;98334.06;;;26.11;92.42
9746;BME280;4912;50.836;12.958;2023-08-20T05:24:39;98335.56;;;26.12;92.13
9746;BME280;4912;50.836;12.958;2023-08-20T05:27:12;98333.56;;;26.28;91.12
9746;BME280;4912;50.836;12.958;2023-08-20T05:29:47;98333.22;;;26.46;89.77
9746;BME280;4912;50.836;12.958;2023-08-20T05:32:22;98338.16;;;26.54;90.24
9746;BME280;4912;50.836;12.958;2023-08-20T05:34:53;98344.22;;;26.42;90.04
9746;BME280;4912;50.836;12.958;2023-08-20T05:37:23;98348.75;;;26.45;90.04
9746;BME280;4912;50.836;12.958;2023-08-20T05:39:54;98340.78;;;26.36;90.74
9746;BME280;4912;50.836;12.958;2023-08-20T05:42:25;98348.16;;;26.39;90.16
9746;BME280;4912;50.836;12.958;2023-08-20T05:45:02;98351.78;;;26.47;90.08
9746;BME280;4912;50.836;12.958;2023-08-20T05:47:35;98352.75;;;26.58;89.74
9746;BME280;4912;50.836;12.958;2023-08-20T05:50:08;98348.41;;;26.57;89.50
9746;BME280;4912;50.836;12.958;2023-08-20T05:52:39;98352.75;;;26.58;89.41
9746;BME280;4912;50.836;12.958;2023-08-20T05:55:10;98349.72;;;26.56;89.42
9746;BME280;4912;50.836;12.958;2023-08-20T05:57:43;98349.56;;;26.61;89.13
9746;BME280;4912;50.836;12.958;2023-08-20T06:00:14;98354.84;;;26.65;89.23
9746;BME280;4912;50.836;12.958;2023-08-20T06:02:49;98356.75;;;26.70;88.75
9746;BME280;4912;50.836;12.958;2023-08-20T06:05:20;98354.09;;;26.72;88.49
9746;BME280;4912;50.836;12.958;2023-08-20T06:07:51;98343.13;;;26.83;88.82
9746;BME280;4912;50.836;12.958;2023-08-20T06:10:21;98334.44;;;26.89;88.11
9746;BME280;4912;50.836;12.958;2023-08-20T06:12:52;98342.59;;;27.00;87.35
9746;BME280;4912;50.836;12.958;2023-08-20T06:15:24;98334.66;;;27.14;86.99
9746;BME280;4912;50.836;12.958;2023-08-20T06:17:57;98336.91;;;27.30;86.25
9746;BME280;4912;50.836;12.958;2023-08-20T06:20:27;98331.00;;;27.44;85.43
9746;BME280;4912;50.836;12.958;2023-08-20T06:22:58;98334.41;;;27.50;84.52
9746;BME280;4912;50.836;12.958;2023-08-20T06:25:31;98334.78;;;27.61;83.00
9746;BME280;4912;50.836;12.958;2023-08-20T06:28:02;98333.41;;;27.70;83.57
9746;BME280;4912;50.836;12.958;2023-08-20T06:30:32;98342.47;;;27.84;82.94
9746;BME280;4912;50.836;12.958;2023-08-20T06:33:06;98351.34;;;27.95;81.22
9746;BME280;4912;50.836;12.958;2023-08-20T06:35:37;98347.22;;;27.89;79.78
9746;BME280;4912;50.836;12.958;2023-08-20T06:38:08;98351.56;;;27.90;79.07
9746;BME280;4912;50.836;12.958;2023-08-20T06:40:39;98351.91;;;28.01;79.28
9746;BME280;4912;50.836;12.958;2023-08-20T06:43:09;98365.91;;;28.15;78.67
9746;BME280;4912;50.836;12.958;2023-08-20T06:45:40;98359.34;;;28.37;77.95
9746;BME280;4912;50.836;12.958;2023-08-20T06:48:13;98359.44;;;28.54;76.79
9746;BME280;4912;50.836;12.958;2023-08-20T06:50:47;98368.81;;;28.79;75.89
9746;BME280;4912;50.836;12.958;2023-08-20T06:53:17;98360.94;;;28.87;74.78
9746;BME280;4912;50.836;12.958;2023-08-20T06:55:48;98371.97;;;28.91;74.31
9746;BME280;4912;50.836;12.958;2023-08-20T06:58:18;98364.03;;;29.07;74.76
9746;BME280;4912;50.836;12.958;2023-08-20T07:00:49;98358.38;;;29.24;74.13
9746;BME280;4912;50.836;12.958;2023-08-20T07:03:22;98373.50;;;29.34;71.93
9746;BME280;4912;50.836;12.958;2023-08-20T07:05:53;98384.69;;;29.15;71.86
9746;BME280;4912;50.836;12.958;2023-08-20T07:08:23;98378.66;;;29.28;72.14
9746;BME280;4912;50.836;12.958;2023-08-20T07:10:54;98373.91;;;29.55;72.06
9746;BME280;4912;50.836;12.958;2023-08-20T07:13:25;98371.97;;;29.75;71.44
9746;BME280;4912;50.836;12.958;2023-08-20T07:15:55;98375.19;;;29.96;70.51
9746;BME280;4912;50.836;12.958;2023-08-20T07:18:29;98369.22;;;30.02;69.08
9746;BME280;4912;50.836;12.958;2023-08-20T07:21:00;98365.88;;;29.96;69.67
9746;BME280;4912;50.836;12.958;2023-08-20T07:23:30;98372.50;;;30.16;68.45
9746;BME280;4912;50.836;12.958;2023-08-20T07:26:05;98369.88;;;30.27;66.80
9746;BME280;4912;50.836;12.958;2023-08-20T07:28:36;98377.06;;;30.28;67.30
9746;BME280;4912;50.836;12.958;2023-08-20T07:31:19;98375.78;;;30.56;67.10
9746;BME280;4912;50.836;12.958;2023-08-20T07:33:53;98376.81;;;30.78;65.46
9746;BME280;4912;50.836;12.958;2023-08-20T07:36:31;98374.53;;;31.03;65.25
9746;BME280;4912;50.836;12.958;2023-08-20T07:39:02;98377.75;;;31.17;64.36
9746;BME280;4912;50.836;12.958;2023-08-20T07:41:33;98376.56;;;31.20;63.98
9746;BME280;4912;50.836;12.958;2023-08-20T07:44:04;98380.56;;;31.07;64.47
9746;BME280;4912;50.836;12.958;2023-08-20T07:46:35;98384.22;;;31.17;64.09
9746;BME280;4912;50.836;12.958;2023-08-20T07:49:08;98378.91;;;31.04;64.00
9746;BME280;4912;50.836;12.958;2023-08-20T07:51:39;98384.09;;;30.62;65.15
9746;BME280;4912;50.836;12.958;2023-08-20T07:54:09;98385.88;;;30.57;65.85
9746;BME280;4912;50.836;12.958;2023-08-20T07:56:40;98376.41;;;30.37;66.08
9746;BME280;4912;50.836;12.958;2023-08-20T07:59:11;98372.25;;;30.21;67.23
9746;BME280;4912;50.836;12.958;2023-08-20T08:01:41;98373.09;;;30.41;66.95
9746;BME280;4912;50.836;12.958;2023-08-20T08:04:18;98387.38;;;30.85;65.55
9746;BME280;4912;50.836;12.958;2023-08-20T08:06:48;98385.91;;;31.20;63.32
9746;BME280;4912;50.836;12.958;2023-08-20T08:09:19;98386.59;;;31.57;62.67
9746;BME280;4912;50.836;12.958;2023-08-20T08:11:51;98386.19;;;31.24;62.24
9746;BME280;4912;50.836;12.958;2023-08-20T08:14:22;98390.84;;;31.10;62.79
9746;BME280;4912;50.836;12.958;2023-08-20T08:16:53;98392.97;;;31.19;62.65
9746;BME280;4912;50.836;12.958;2023-08-20T08:19:26;98398.88;;;31.31;62.63
9746;BME280;4912;50.836;12.958;2023-08-20T08:21:57;98397.16;;;31.18;63.50
9746;BME280;4912;50.836;12.958;2023-08-20T08:24:27;98396.28;;;31.16;63.57
9746;BME280;4912;50.836;12.958;2023-08-20T08:26:58;98398.47;;;31.08;63.58
9746;BME280;4912;50.836;12.958;2023-08-20T08:29:28;98404.69;;;31.23;63.49
9746;BME280;4912;50.836;12.958;2023-08-20T08:31:59;98403.38;;;31.34;62.89
9746;BME280;4912;50.836;12.958;2023-08-20T08:34:32;98413.88;;;30.95;64.17
9746;BME280;4912;50.836;12.958;2023-08-20T08:37:03;98406.47;;;30.56;65.06
9746;BME280;4912;50.836;12.958;2023-08-20T08:39:33;98404.41;;;30.22;65.71
9746;BME280;4912;50.836;12.958;2023-08-20T08:42:05;98406.16;;;30.00;66.33
9746;BME280;4912;50.836;12.958;2023-08-20T08:44:37;98402.97;;;29.96;67.17
9746;BME280;4912;50.836;12.958;2023-08-20T08:47:07;98401.50;;;29.87;67.41
9746;BME280;4912;50.836;12.958;2023-08-20T08:49:40;98403.41;;;29.92;68.21
9746;BME280;4912;50.836;12.958;2023-08-20T08:52:13;98404.78;;;30.35;67.31
9746;BME280;4912;50.836;12.958;2023-08-20T08:54:44;98395.28;;;32.15;60.84
9746;BME280;4912;50.836;12.958;2023-08-20T08:57:16;98397.38;;;32.15;58.92
9746;BME280;4912;50.836;12.958;2023-08-20T08:59:47;98386.22;;;33.59;56.20
9746;BME280;4912;50.836;12.958;2023-08-20T09:02:17;98402.94;;;33.42;55.02
9746;BME280;4912;50.836;12.958;2023-08-20T09:04:52;98413.00;;;33.52;54.19
9746;BME280;4912;50.836;12.958;2023-08-20T09:07:23;98421.13;;;32.65;56.87
9746;BME280;4912;50.836;12.958;2023-08-20T09:09:58;98426.44;;;32.01;58.86
9746;BME280;4912;50.836;12.958;2023-08-20T09:12:34;98433.47;;;31.62;60.54
9746;BME280;4912;50.836;12.958;2023-08-20T09:15:10;98433.47;;;31.25;61.50
9746;BME280;4912;50.836;12.958;2023-08-20T09:17:41;98433.75;;;31.20;61.27
9746;BME280;4912;50.836;12.958;2023-08-20T09:20:14;98449.50;;;31.11;62.38
9746;BME280;4912;50.836;12.958;2023-08-20T09:22:48;98440.03;;;31.09;63.32
9746;BME280;4912;50.836;12.958;2023-08-20T09:25:19;98439.53;;;31.39;61.84
9746;BME280;4912;50.836;12.958;2023-08-20T09:27:50;98441.22;;;32.56;59.25
9746;BME280;4912;50.836;12.958;2023-08-20T09:30:20;98442.56;;;32.55;58.54
9746;BME280;4912;50.836;12.958;2023-08-20T09:33:05;98445.59;;;32.66;58.08
9746;BME280;4912;50.836;12.958;2023-08-20T09:35:48;98445.31;;;32.14;57.97
9746;BME280;4912;50.836;12.958;2023-08-20T09:38:22;98452.66;;;31.98;58.31
9746;BME280;4912;50.836;12.958;2023-08-20T09:40:54;98443.22;;;33.13;57.12
9746;BME280;4912;50.836;12.958;2023-08-20T09:43:28;98426.16;;;34.73;51.50
9746;BME280;4912;50.836;12.958;2023-08-20T09:46:02;98425.88;;;35.60;49.63
9746;BME280;4912;50.836;12.958;2023-08-20T09:48:38;98425.41;;;36.12;46.04
9746;BME280;4912;50.836;12.958;2023-08-20T09:51:18;98425.53;;;36.77;45.50
9746;BME280;4912;50.836;12.958;2023-08-20T09:53:59;98423.84;;;37.11;44.34
9746;BME280;4912;50.836;12.958;2023-08-20T09:56:37;98423.47;;;37.05;43.54
9746;BME280;4912;50.836;12.958;2023-08-20T09:59:10;98423.84;;;37.11;43.44
9746;BME280;4912;50.836;12.958;2023-08-20T10:01:44;98425.59;;;35.91;45.50
9746;BME280;4912;50.836;12.958;2023-08-20T10:04:17;98422.69;;;36.40;45.04
9746;BME280;4912;50.836;12.958;2023-08-20T10:06:52;98414.44;;;37.24;43.72
9746;BME280;4912;50.836;12.958;2023-08-20T10:09:25;98416.16;;;37.84;43.86
9746;BME280;4912;50.836;12.958;2023-08-20T10:12:05;98409.56;;;38.24;42.78
9746;BME280;4912;50.836;12.958;2023-08-20T10:14:37;98407.69;;;37.47;42.61
9746;BME280;4912;50.836;12.958;2023-08-20T10:17:08;98412.31;;;37.11;44.54
9746;BME280;4912;50.836;12.958;2023-08-20T10:19:38;98406.72;;;37.15;44.83
9746;BME280;4912;50.836;12.958;2023-08-20T10:22:12;98401.91;;;37.19;44.49
9746;BME280;4912;50.836;12.958;2023-08-20T10:24:48;98396.03;;;37.99;43.19
9746;BME280;4912;50.836;12.958;2023-08-20T10:27:26;98389.22;;;37.79;42.61
9746;BME280;4912;50.836;12.958;2023-08-20T10:29:59;98379.72;;;38.20;41.50
9746;BME280;4912;50.836;12.958;2023-08-20T10:32:49;98374.25;;;38.71;41.28
9746;BME280;4912;50.836;12.958;2023-08-20T10:35:25;98374.47;;;39.06;39.80
9746;BME280;4912;50.836;12.958;2023-08-20T10:38:07;98373.00;;;39.05;39.34
9746;BME280;4912;50.836;12.958;2023-08-20T10:40:53;98372.69;;;38.83;40.91
9746;BME280;4912;50.836;12.958;2023-08-20T10:43:28;98367.94;;;39.37;40.70
9746;BME280;4912;50.836;12.958;2023-08-20T10:46:07;98371.34;;;39.81;38.85
9746;BME280;4912;50.836;12.958;2023-08-20T10:48:50;98375.59;;;40.13;39.20
9746;BME280;4912;50.836;12.958;2023-08-20T10:51:25;98371.28;;;40.14;37.37
9746;BME280;4912;50.836;12.958;2023-08-20T10:54:07;98373.31;;;40.45;38.12
9746;BME280;4912;50.836;12.958;2023-08-20T10:56:40;98373.41;;;40.65;37.99
9746;BME280;4912;50.836;12.958;2023-08-20T10:59:14;98373.13;;;40.76;38.16
9746;BME280;4912;50.836;12.958;2023-08-20T11:01:47;98363.59;;;40.56;36.84
9746;BME280;4912;50.836;12.958;2023-08-20T11:04:19;98372.38;;;40.58;36.21
9746;BME280;4912;50.836;12.958;2023-08-20T11:06:55;98371.28;;;40.85;35.96
9746;BME280;4912;50.836;12.958;2023-08-20T11:09:30;98366.22;;;41.23;35.16
9746;BME280;4912;50.836;12.958;2023-08-20T11:12:02;98364.34;;;41.51;34.54
9746;BME280;4912;50.836;12.958;2023-08-20T11:14:35;98359.72;;;41.64;34.69
9746;BME280;4912;50.836;12.958;2023-08-20T11:17:06;98353.78;;;41.82;34.08
9746;BME280;4912;50.836;12.958;2023-08-20T11:19:37;98352.25;;;42.22;33.77
9746;BME280;4912;50.836;12.958;2023-08-20T11:22:09;98348.13;;;42.51;33.72
9746;BME280;4912;50.836;12.958;2023-08-20T11:24:45;98336.69;;;42.81;32.24
9746;BME280;4912;50.836;12.958;2023-08-20T11:27:19;98325.56;;;42.99;32.04
9746;BME280;4912;50.836;12.958;2023-08-20T11:29:49;98327.16;;;43.28;31.71
9746;BME280;4912;50.836;12.958;2023-08-20T11:32:21;98340.09;;;43.49;31.69
9746;BME280;4912;50.836;12.958;2023-08-20T11:34:52;98346.69;;;43.77;31.64
9746;BME280;4912;50.836;12.958;2023-08-20T11:37:22;98338.50;;;43.97;31.61
9746;BME280;4912;50.836;12.958;2023-08-20T11:39:55;98343.59;;;44.27;29.77
9746;BME280;4912;50.836;12.958;2023-08-20T11:42:26;98343.22;;;44.70;29.99
9746;BME280;4912;50.836;12.958;2023-08-20T11:44:57;98348.69;;;44.26;30.50
9746;BME280;4912;50.836;12.958;2023-08-20T11:47:28;98348.66;;;42.45;31.49
9746;BME280;4912;50.836;12.958;2023-08-20T11:50:03;98349.69;;;41.89;33.71
9746;BME280;4912;50.836;12.958;2023-08-20T11:52:35;98346.97;;;41.53;33.87
9746;BME280;4912;50.836;12.958;2023-08-20T11:55:09;98352.41;;;41.63;34.32
9746;BME280;4912;50.836;12.958;2023-08-20T11:57:40;98345.16;;;42.27;33.37
9746;BME280;4912;50.836;12.958;2023-08-20T12:00:24;98345.38;;;42.57;33.12
9746;BME280;4912;50.836;12.958;2023-08-20T12:02:57;98346.13;;;41.71;33.38
9746;BME280;4912;50.836;12.958;2023-08-20T12:05:28;98354.72;;;40.52;35.61
9746;BME280;4912;50.836;12.958;2023-08-20T12:08:00;98349.00;;;40.54;35.77
9746;BME280;4912;50.836;12.958;2023-08-20T12:10:34;98335.88;;;41.28;35.09
9746;BME280;4912;50.836;12.958;2023-08-20T12:13:05;98321.53;;;42.39;33.64
9746;BME280;4912;50.836;12.958;2023-08-20T12:15:38;98319.03;;;43.24;32.68
9746;BME280;4912;50.836;12.958;2023-08-20T12:18:13;98313.75;;;43.71;31.08
9746;BME280;4912;50.836;12.958;2023-08-20T12:20:43;98322.97;;;43.61;31.21
9746;BME280;4912;50.836;12.958;2023-08-20T12:23:14;98312.25;;;42.44;33.08
9746;BME280;4912;50.836;12.958;2023-08-20T12:25:50;98311.59;;;41.39;34.51
9746;BME280;4912;50.836;12.958;2023-08-20T12:28:26;98312.38;;;40.45;36.80
9746;BME280;4912;50.836;12.958;2023-08-20T12:30:58;98318.03;;;39.72;38.40
9746;BME280;4912;50.836;12.958;2023-08-20T12:33:30;98317.91;;;39.03;39.95
9746;BME280;4912;50.836;12.958;2023-08-20T12:36:00;98315.94;;;39.08;38.66
9746;BME280;4912;50.836;12.958;2023-08-20T12:38:31;98312.69;;;39.00;39.46
9746;BME280;4912;50.836;12.958;2023-08-20T12:41:04;98313.63;;;38.43;40.57
9746;BME280;4912;50.836;12.958;2023-08-20T12:43:35;98310.03;;;38.90;40.09
9746;BME280;4912;50.836;12.958;2023-08-20T12:46:05;98309.75;;;40.71;36.34
9746;BME280;4912;50.836;12.958;2023-08-20T12:48:36;98305.78;;;41.81;34.19
9746;BME280;4912;50.836;12.958;2023-08-20T12:51:09;98296.69;;;42.60;33.35
9746;BME280;4912;50.836;12.958;2023-08-20T12:53:41;98288.09;;;42.64;33.47
9746;BME280;4912;50.836;12.958;2023-08-20T12:56:14;98286.09;;;43.46;32.99
9746;BME280;4912;50.836;12.958;2023-08-20T12:58:45;98283.88;;;44.00;31.78
9746;BME280;4912;50.836;12.958;2023-08-20T13:01:15;98275.22;;;44.34;30.78
9746;BME280;4912;50.836;12.958;2023-08-20T13:03:47;98275.03;;;44.58;30.34
9746;BME280;4912;50.836;12.958;2023-08-20T13:06:19;98271.22;;;44.51;30.27
9746;BME280;4912;50.836;12.958;2023-08-20T13:08:51;98277.16;;;44.89;30.02
9746;BME280;4912;50.836;12.958;2023-08-20T13:11:28;98264.94;;;44.99;29.21
9746;BME280;4912;50.836;12.958;2023-08-20T13:14:00;98266.38;;;44.98;28.55
9746;BME280;4912;50.836;12.958;2023-08-20T13:16:31;98260.59;;;45.00;28.93
9746;BME280;4912;50.836;12.958;2023-08-20T13:19:03;98260.19;;;45.15;28.86
9746;BME280;4912;50.836;12.958;2023-08-20T13:21:34;98258.91;;;45.26;28.51
9746;BME280;4912;50.836;12.958;2023-08-20T13:24:06;98259.94;;;45.41;29.19
9746;BME280;4912;50.836;12.958;2023-08-20T13:26:40;98262.38;;;45.55;29.67
9746;BME280;4912;50.836;12.958;2023-08-20T13:29:11;98257.81;;;45.86;28.72
9746;BME280;4912;50.836;12.958;2023-08-20T13:31:42;98250.75;;;46.03;28.50
9746;BME280;4912;50.836;12.958;2023-08-20T13:34:12;98248.13;;;46.21;27.97
9746;BME280;4912;50.836;12.958;2023-08-20T13:36:43;98248.13;;;46.21;28.45
9746;BME280;4912;50.836;12.958;2023-08-20T13:39:14;98242.34;;;46.25;28.80
9746;BME280;4912;50.836;12.958;2023-08-20T13:41:49;98249.09;;;46.38;28.64